sensor_id;sensor_type;location;lat;lon;timestamp;P1;durP1;ratioP1;P2;durP2;ratioP2
63693;SDS011;49839;51.798;10.954;2022-12-19T00:00:12;3.97;;;1.98;;
63693;SDS011;49839;51.798;10.954;2022-12-19T00:02:40;4.28;;;1.77;;
63693;SDS011;49839;51.798;10.954;2022-12-19T00:05:08;4.78;;;2.00;;
63693;SDS011;49839;51.798;10.954;2022-12-19T00:07:36;4.75;;;2.30;;
63693;SDS011;49839;51.798;10.954;2022-12-19T00:10:04;3.30;;;1.60;;
63693;SDS011;49839;51.798;10.954;2022-12-19T00:12:31;4.50;;;1.65;;
63693;SDS011;49839;51.798;10.954;2022-12-19T00:15:00;4.95;;;2.35;;
63693;SDS011;49839;51.798;10.954;2022-12-19T00:17:27;5.35;;;2.22;;
63693;SDS011;49839;51.798;10.954;2022-12-19T00:19:55;6.40;;;2.13;;
63693;SDS011;49839;51.798;10.954;2022-12-19T00:22:23;6.40;;;2.03;;
63693;SDS011;49839;51.798;10.954;2022-12-19T00:24:50;5.07;;;2.38;;
63693;SDS011;49839;51.798;10.954;2022-12-19T00:27:18;6.20;;;1.95;;
63693;SDS011;49839;51.798;10.954;2022-12-19T00:29:45;5.32;;;2.33;;
63693;SDS011;49839;51.798;10.954;2022-12-19T00:32:14;4.88;;;1.95;;
63693;SDS011;49839;51.798;10.954;2022-12-19T00:34:41;5.30;;;2.33;;
63693;SDS011;49839;51.798;10.954;2022-12-19T00:37:09;4.40;;;2.10;;
63693;SDS011;49839;51.798;10.954;2022-12-19T00:39:37;6.50;;;1.77;;
63693;SDS011;49839;51.798;10.954;2022-12-19T00:42:04;5.15;;;2.10;;
63693;SDS011;49839;51.798;10.954;2022-12-19T00:44:32;5.50;;;2.38;;
63693;SDS011;49839;51.798;10.954;2022-12-19T00:46:59;5.45;;;1.92;;
63693;SDS011;49839;51.798;10.954;2022-12-19T00:49:28;6.50;;;2.60;;
63693;SDS011;49839;51.798;10.954;2022-12-19T00:51:56;3.53;;;1.77;;
63693;SDS011;49839;51.798;10.954;2022-12-19T00:54:25;4.55;;;1.77;;
63693;SDS011;49839;51.798;10.954;2022-12-19T00:56:53;4.18;;;1.83;;
63693;SDS011;49839;51.798;10.954;2022-12-19T00:59:20;4.40;;;1.77;;
63693;SDS011;49839;51.798;10.954;2022-12-19T01:01:52;6.63;;;2.55;;
63693;SDS011;49839;51.798;10.954;2022-12-19T01:04:19;6.53;;;2.50;;
63693;SDS011;49839;51.798;10.954;2022-12-19T01:06:58;7.30;;;2.70;;
63693;SDS011;49839;51.798;10.954;2022-12-19T01:09:28;6.10;;;2.33;;
63693;SDS011;49839;51.798;10.954;2022-12-19T01:11:56;5.40;;;2.20;;
63693;SDS011;49839;51.798;10.954;2022-12-19T01:14:41;5.25;;;2.35;;
63693;SDS011;49839;51.798;10.954;2022-12-19T01:17:08;6.43;;;2.83;;
63693;SDS011;49839;51.798;10.954;2022-12-19T01:19:36;6.75;;;2.63;;
63693;SDS011;49839;51.798;10.954;2022-12-19T01:22:10;5.72;;;2.28;;
63693;SDS011;49839;51.798;10.954;2022-12-19T01:24:38;8.38;;;3.72;;
63693;SDS011;49839;51.798;10.954;2022-12-19T01:27:06;5.38;;;2.40;;
63693;SDS011;49839;51.798;10.954;2022-12-19T01:29:33;5.32;;;2.42;;
63693;SDS011;49839;51.798;10.954;2022-12-19T01:32:17;9.82;;;3.20;;
63693;SDS011;49839;51.798;10.954;2022-12-19T01:34:45;5.88;;;2.53;;
63693;SDS011;49839;51.798;10.954;2022-12-19T01:37:14;6.38;;;2.75;;
63693;SDS011;49839;51.798;10.954;2022-12-19T01:39:41;3.97;;;1.83;;
63693;SDS011;49839;51.798;10.954;2022-12-19T01:42:12;8.43;;;3.10;;
63693;SDS011;49839;51.798;10.954;2022-12-19T01:47:29;7.05;;;3.10;;
63693;SDS011;49839;51.798;10.954;2022-12-19T01:49:57;7.03;;;3.17;;
63693;SDS011;49839;51.798;10.954;2022-12-19T01:52:26;7.43;;;3.30;;
63693;SDS011;49839;51.798;10.954;2022-12-19T01:54:54;3.90;;;1.90;;
63693;SDS011;49839;51.798;10.954;2022-12-19T01:57:24;7.88;;;3.08;;
63693;SDS011;49839;51.798;10.954;2022-12-19T01:59:52;5.63;;;2.60;;
63693;SDS011;49839;51.798;10.954;2022-12-19T02:02:20;8.83;;;4.10;;
63693;SDS011;49839;51.798;10.954;2022-12-19T02:04:49;7.18;;;3.17;;
63693;SDS011;49839;51.798;10.954;2022-12-19T02:07:17;8.25;;;4.38;;
63693;SDS011;49839;51.798;10.954;2022-12-19T02:09:48;7.78;;;3.97;;
63693;SDS011;49839;51.798;10.954;2022-12-19T02:12:23;6.95;;;2.85;;
63693;SDS011;49839;51.798;10.954;2022-12-19T02:14:51;7.38;;;3.70;;
63693;SDS011;49839;51.798;10.954;2022-12-19T02:17:23;7.18;;;3.22;;
63693;SDS011;49839;51.798;10.954;2022-12-19T02:20:15;8.38;;;3.78;;
63693;SDS011;49839;51.798;10.954;2022-12-19T02:22:53;7.93;;;3.53;;
63693;SDS011;49839;51.798;10.954;2022-12-19T02:25:31;10.48;;;3.63;;
63693;SDS011;49839;51.798;10.954;2022-12-19T02:28:11;8.43;;;3.70;;
63693;SDS011;49839;51.798;10.954;2022-12-19T02:30:50;8.63;;;4.15;;
63693;SDS011;49839;51.798;10.954;2022-12-19T02:33:21;10.13;;;3.95;;
63693;SDS011;49839;51.798;10.954;2022-12-19T02:35:51;8.77;;;3.83;;
63693;SDS011;49839;51.798;10.954;2022-12-19T02:38:20;7.72;;;3.67;;
63693;SDS011;49839;51.798;10.954;2022-12-19T02:40:54;8.88;;;4.43;;
63693;SDS011;49839;51.798;10.954;2022-12-19T02:43:24;8.18;;;3.55;;
63693;SDS011;49839;51.798;10.954;2022-12-19T02:45:55;9.10;;;4.13;;
63693;SDS011;49839;51.798;10.954;2022-12-19T02:48:23;9.55;;;4.28;;
63693;SDS011;49839;51.798;10.954;2022-12-19T02:50:51;8.70;;;4.22;;
63693;SDS011;49839;51.798;10.954;2022-12-19T02:53:19;9.77;;;4.13;;
63693;SDS011;49839;51.798;10.954;2022-12-19T02:55:52;11.02;;;4.28;;
63693;SDS011;49839;51.798;10.954;2022-12-19T02:58:31;9.77;;;4.03;;
63693;SDS011;49839;51.798;10.954;2022-12-19T03:01:05;7.32;;;3.65;;
63693;SDS011;49839;51.798;10.954;2022-12-19T03:03:37;7.72;;;3.55;;
63693;SDS011;49839;51.798;10.954;2022-12-19T03:06:09;10.15;;;4.40;;
63693;SDS011;49839;51.798;10.954;2022-12-19T03:08:42;7.93;;;4.13;;
63693;SDS011;49839;51.798;10.954;2022-12-19T03:11:11;6.53;;;3.05;;
63693;SDS011;49839;51.798;10.954;2022-12-19T03:13:40;9.88;;;3.90;;
63693;SDS011;49839;51.798;10.954;2022-12-19T03:16:10;9.77;;;4.40;;
63693;SDS011;49839;51.798;10.954;2022-12-19T03:18:38;9.77;;;4.50;;
63693;SDS011;49839;51.798;10.954;2022-12-19T03:21:07;10.20;;;3.95;;
63693;SDS011;49839;51.798;10.954;2022-12-19T03:23:37;8.80;;;4.20;;
63693;SDS011;49839;51.798;10.954;2022-12-19T03:26:06;12.40;;;4.70;;
63693;SDS011;49839;51.798;10.954;2022-12-19T03:28:35;8.38;;;4.45;;
63693;SDS011;49839;51.798;10.954;2022-12-19T03:31:04;9.43;;;4.07;;
63693;SDS011;49839;51.798;10.954;2022-12-19T03:33:34;10.52;;;4.47;;
63693;SDS011;49839;51.798;10.954;2022-12-19T03:36:03;11.98;;;3.13;;
63693;SDS011;49839;51.798;10.954;2022-12-19T03:38:33;7.97;;;3.95;;
63693;SDS011;49839;51.798;10.954;2022-12-19T03:41:01;8.90;;;4.28;;
63693;SDS011;49839;51.798;10.954;2022-12-19T03:43:29;9.57;;;4.47;;
63693;SDS011;49839;51.798;10.954;2022-12-19T03:45:59;11.10;;;5.22;;
63693;SDS011;49839;51.798;10.954;2022-12-19T03:48:29;9.73;;;4.10;;
63693;SDS011;49839;51.798;10.954;2022-12-19T03:51:02;10.40;;;5.00;;
63693;SDS011;49839;51.798;10.954;2022-12-19T03:53:40;11.27;;;5.15;;
63693;SDS011;49839;51.798;10.954;2022-12-19T03:56:11;9.88;;;4.53;;
63693;SDS011;49839;51.798;10.954;2022-12-19T03:58:44;11.00;;;4.63;;
63693;SDS011;49839;51.798;10.954;2022-12-19T04:01:13;12.85;;;5.10;;
63693;SDS011;49839;51.798;10.954;2022-12-19T04:03:41;10.70;;;4.32;;
63693;SDS011;49839;51.798;10.954;2022-12-19T04:06:10;9.43;;;4.15;;
63693;SDS011;49839;51.798;10.954;2022-12-19T04:08:39;9.40;;;4.35;;
63693;SDS011;49839;51.798;10.954;2022-12-19T04:11:09;9.50;;;4.53;;
63693;SDS011;49839;51.798;10.954;2022-12-19T04:13:40;9.70;;;4.03;;
63693;SDS011;49839;51.798;10.954;2022-12-19T04:16:10;9.82;;;4.65;;
63693;SDS011;49839;51.798;10.954;2022-12-19T04:18:39;11.18;;;4.97;;
63693;SDS011;49839;51.798;10.954;2022-12-19T04:21:11;10.90;;;5.25;;
63693;SDS011;49839;51.798;10.954;2022-12-19T04:23:43;9.02;;;3.72;;
63693;SDS011;49839;51.798;10.954;2022-12-19T04:26:12;8.32;;;4.03;;
63693;SDS011;49839;51.798;10.954;2022-12-19T04:31:10;11.20;;;5.07;;
63693;SDS011;49839;51.798;10.954;2022-12-19T04:33:38;9.60;;;4.80;;
63693;SDS011;49839;51.798;10.954;2022-12-19T04:36:06;10.50;;;4.95;;
63693;SDS011;49839;51.798;10.954;2022-12-19T04:38:33;10.38;;;5.45;;
63693;SDS011;49839;51.798;10.954;2022-12-19T04:41:02;9.10;;;4.72;;
63693;SDS011;49839;51.798;10.954;2022-12-19T04:43:29;10.73;;;4.95;;
63693;SDS011;49839;51.798;10.954;2022-12-19T04:45:57;13.43;;;5.00;;
63693;SDS011;49839;51.798;10.954;2022-12-19T04:48:24;10.25;;;4.32;;
63693;SDS011;49839;51.798;10.954;2022-12-19T04:50:52;11.00;;;4.78;;
63693;SDS011;49839;51.798;10.954;2022-12-19T04:53:19;10.10;;;4.47;;
63693;SDS011;49839;51.798;10.954;2022-12-19T04:55:47;9.93;;;5.38;;
63693;SDS011;49839;51.798;10.954;2022-12-19T04:58:16;10.35;;;4.90;;
63693;SDS011;49839;51.798;10.954;2022-12-19T05:00:47;10.60;;;4.70;;
63693;SDS011;49839;51.798;10.954;2022-12-19T05:03:14;12.00;;;5.68;;
63693;SDS011;49839;51.798;10.954;2022-12-19T05:05:42;10.45;;;5.43;;
63693;SDS011;49839;51.798;10.954;2022-12-19T05:08:09;12.90;;;5.00;;
63693;SDS011;49839;51.798;10.954;2022-12-19T05:10:37;7.30;;;4.18;;
63693;SDS011;49839;51.798;10.954;2022-12-19T05:13:05;8.15;;;3.83;;
63693;SDS011;49839;51.798;10.954;2022-12-19T05:15:34;13.07;;;5.38;;
63693;SDS011;49839;51.798;10.954;2022-12-19T05:18:01;11.25;;;5.40;;
63693;SDS011;49839;51.798;10.954;2022-12-19T05:20:29;9.63;;;4.97;;
63693;SDS011;49839;51.798;10.954;2022-12-19T05:22:56;10.77;;;5.45;;
63693;SDS011;49839;51.798;10.954;2022-12-19T05:25:29;13.85;;;6.10;;
63693;SDS011;49839;51.798;10.954;2022-12-19T05:27:56;9.32;;;5.03;;
63693;SDS011;49839;51.798;10.954;2022-12-19T05:30:24;9.82;;;4.90;;
63693;SDS011;49839;51.798;10.954;2022-12-19T05:32:53;11.50;;;5.57;;
63693;SDS011;49839;51.798;10.954;2022-12-19T05:35:21;11.57;;;5.68;;
63693;SDS011;49839;51.798;10.954;2022-12-19T05:37:48;12.27;;;6.07;;
63693;SDS011;49839;51.798;10.954;2022-12-19T05:40:16;13.68;;;6.93;;
63693;SDS011;49839;51.798;10.954;2022-12-19T05:42:43;13.20;;;8.00;;
63693;SDS011;49839;51.798;10.954;2022-12-19T05:45:10;14.93;;;6.95;;
63693;SDS011;49839;51.798;10.954;2022-12-19T05:47:38;10.95;;;5.65;;
63693;SDS011;49839;51.798;10.954;2022-12-19T05:50:07;11.15;;;5.60;;
63693;SDS011;49839;51.798;10.954;2022-12-19T05:52:37;6.45;;;3.50;;
63693;SDS011;49839;51.798;10.954;2022-12-19T05:55:05;12.25;;;6.32;;
63693;SDS011;49839;51.798;10.954;2022-12-19T05:57:33;12.68;;;6.60;;
63693;SDS011;49839;51.798;10.954;2022-12-19T06:00:02;12.27;;;6.85;;
63693;SDS011;49839;51.798;10.954;2022-12-19T06:02:30;12.60;;;6.15;;
63693;SDS011;49839;51.798;10.954;2022-12-19T06:04:58;14.50;;;6.63;;
63693;SDS011;49839;51.798;10.954;2022-12-19T06:07:27;15.50;;;7.82;;
63693;SDS011;49839;51.798;10.954;2022-12-19T06:09:55;10.68;;;5.47;;
63693;SDS011;49839;51.798;10.954;2022-12-19T06:12:22;13.05;;;6.22;;
63693;SDS011;49839;51.798;10.954;2022-12-19T06:14:49;12.35;;;5.78;;
63693;SDS011;49839;51.798;10.954;2022-12-19T06:17:17;7.60;;;4.10;;
63693;SDS011;49839;51.798;10.954;2022-12-19T06:19:44;13.77;;;8.18;;
63693;SDS011;49839;51.798;10.954;2022-12-19T06:22:12;14.38;;;7.18;;
63693;SDS011;49839;51.798;10.954;2022-12-19T06:24:41;8.20;;;4.32;;
63693;SDS011;49839;51.798;10.954;2022-12-19T06:27:08;11.98;;;6.32;;
63693;SDS011;49839;51.798;10.954;2022-12-19T06:29:36;12.00;;;5.78;;
63693;SDS011;49839;51.798;10.954;2022-12-19T06:32:03;12.32;;;6.85;;
63693;SDS011;49839;51.798;10.954;2022-12-19T06:34:31;11.57;;;5.70;;
63693;SDS011;49839;51.798;10.954;2022-12-19T06:37:18;14.25;;;7.40;;
63693;SDS011;49839;51.798;10.954;2022-12-19T06:39:47;14.48;;;5.57;;
63693;SDS011;49839;51.798;10.954;2022-12-19T06:42:16;14.30;;;5.95;;
63693;SDS011;49839;51.798;10.954;2022-12-19T06:44:48;12.98;;;6.50;;
63693;SDS011;49839;51.798;10.954;2022-12-19T06:47:16;10.43;;;4.63;;
63693;SDS011;49839;51.798;10.954;2022-12-19T06:49:43;12.80;;;6.75;;
63693;SDS011;49839;51.798;10.954;2022-12-19T06:52:11;14.57;;;6.40;;
63693;SDS011;49839;51.798;10.954;2022-12-19T06:54:38;14.07;;;6.32;;
63693;SDS011;49839;51.798;10.954;2022-12-19T06:57:07;13.32;;;7.32;;
63693;SDS011;49839;51.798;10.954;2022-12-19T06:59:35;16.10;;;7.50;;
63693;SDS011;49839;51.798;10.954;2022-12-19T07:02:04;10.90;;;6.57;;
63693;SDS011;49839;51.798;10.954;2022-12-19T07:04:36;11.02;;;5.72;;
63693;SDS011;49839;51.798;10.954;2022-12-19T07:07:04;13.60;;;7.07;;
63693;SDS011;49839;51.798;10.954;2022-12-19T07:09:32;17.40;;;7.90;;
63693;SDS011;49839;51.798;10.954;2022-12-19T07:12:00;13.70;;;6.63;;
63693;SDS011;49839;51.798;10.954;2022-12-19T07:14:29;13.90;;;6.55;;
63693;SDS011;49839;51.798;10.954;2022-12-19T07:16:56;14.80;;;7.10;;
63693;SDS011;49839;51.798;10.954;2022-12-19T07:19:25;14.60;;;7.30;;
63693;SDS011;49839;51.798;10.954;2022-12-19T07:21:53;12.40;;;6.05;;
63693;SDS011;49839;51.798;10.954;2022-12-19T07:24:21;13.43;;;7.10;;
63693;SDS011;49839;51.798;10.954;2022-12-19T07:26:49;11.70;;;6.18;;
63693;SDS011;49839;51.798;10.954;2022-12-19T07:29:16;13.10;;;7.45;;
63693;SDS011;49839;51.798;10.954;2022-12-19T07:31:45;16.55;;;6.93;;
63693;SDS011;49839;51.798;10.954;2022-12-19T07:34:13;12.05;;;6.78;;
63693;SDS011;49839;51.798;10.954;2022-12-19T07:36:40;15.57;;;7.15;;
63693;SDS011;49839;51.798;10.954;2022-12-19T07:39:08;18.02;;;7.35;;
63693;SDS011;49839;51.798;10.954;2022-12-19T07:41:36;13.48;;;7.45;;
63693;SDS011;49839;51.798;10.954;2022-12-19T07:44:03;15.88;;;7.05;;
63693;SDS011;49839;51.798;10.954;2022-12-19T07:46:31;14.68;;;7.70;;
63693;SDS011;49839;51.798;10.954;2022-12-19T07:49:00;14.10;;;7.47;;
63693;SDS011;49839;51.798;10.954;2022-12-19T07:51:28;15.02;;;7.25;;
63693;SDS011;49839;51.798;10.954;2022-12-19T07:53:56;15.27;;;7.40;;
63693;SDS011;49839;51.798;10.954;2022-12-19T07:56:25;12.10;;;6.57;;
63693;SDS011;49839;51.798;10.954;2022-12-19T07:58:52;14.18;;;8.30;;
63693;SDS011;49839;51.798;10.954;2022-12-19T08:01:20;11.77;;;6.07;;
63693;SDS011;49839;51.798;10.954;2022-12-19T08:03:47;12.45;;;7.20;;
63693;SDS011;49839;51.798;10.954;2022-12-19T08:06:18;14.02;;;5.97;;
63693;SDS011;49839;51.798;10.954;2022-12-19T08:08:45;14.45;;;7.22;;
63693;SDS011;49839;51.798;10.954;2022-12-19T08:11:14;17.58;;;7.95;;
63693;SDS011;49839;51.798;10.954;2022-12-19T08:13:42;12.77;;;6.38;;
63693;SDS011;49839;51.798;10.954;2022-12-19T08:16:12;10.38;;;4.60;;
63693;SDS011;49839;51.798;10.954;2022-12-19T08:18:40;15.63;;;7.78;;
63693;SDS011;49839;51.798;10.954;2022-12-19T08:21:09;10.25;;;5.72;;
63693;SDS011;49839;51.798;10.954;2022-12-19T08:23:38;14.05;;;5.10;;
63693;SDS011;49839;51.798;10.954;2022-12-19T08:26:07;11.40;;;6.03;;
63693;SDS011;49839;51.798;10.954;2022-12-19T08:28:35;12.93;;;6.03;;
63693;SDS011;49839;51.798;10.954;2022-12-19T08:31:04;11.40;;;6.22;;
63693;SDS011;49839;51.798;10.954;2022-12-19T08:33:31;13.95;;;6.63;;
63693;SDS011;49839;51.798;10.954;2022-12-19T08:36:01;8.30;;;4.28;;
63693;SDS011;49839;51.798;10.954;2022-12-19T08:38:29;12.95;;;6.93;;
63693;SDS011;49839;51.798;10.954;2022-12-19T08:40:58;14.60;;;8.52;;
63693;SDS011;49839;51.798;10.954;2022-12-19T08:43:27;15.80;;;7.88;;
63693;SDS011;49839;51.798;10.954;2022-12-19T08:45:55;18.65;;;8.18;;
63693;SDS011;49839;51.798;10.954;2022-12-19T08:48:23;12.80;;;7.15;;
63693;SDS011;49839;51.798;10.954;2022-12-19T08:50:51;14.10;;;7.97;;
63693;SDS011;49839;51.798;10.954;2022-12-19T08:53:18;17.20;;;8.30;;
63693;SDS011;49839;51.798;10.954;2022-12-19T08:55:52;14.60;;;8.23;;
63693;SDS011;49839;51.798;10.954;2022-12-19T08:58:21;14.43;;;8.02;;
63693;SDS011;49839;51.798;10.954;2022-12-19T09:00:49;14.35;;;7.75;;
63693;SDS011;49839;51.798;10.954;2022-12-19T09:03:26;14.63;;;7.85;;
63693;SDS011;49839;51.798;10.954;2022-12-19T09:06:13;12.05;;;6.07;;
63693;SDS011;49839;51.798;10.954;2022-12-19T09:08:44;14.40;;;6.20;;
63693;SDS011;49839;51.798;10.954;2022-12-19T09:11:12;11.30;;;5.70;;
63693;SDS011;49839;51.798;10.954;2022-12-19T09:13:42;10.00;;;4.32;;
63693;SDS011;49839;51.798;10.954;2022-12-19T09:16:10;10.15;;;5.78;;
63693;SDS011;49839;51.798;10.954;2022-12-19T09:18:39;12.02;;;5.63;;
63693;SDS011;49839;51.798;10.954;2022-12-19T09:21:13;10.60;;;5.97;;
63693;SDS011;49839;51.798;10.954;2022-12-19T09:23:41;9.00;;;5.25;;
63693;SDS011;49839;51.798;10.954;2022-12-19T09:26:11;9.82;;;5.80;;
63693;SDS011;49839;51.798;10.954;2022-12-19T09:28:39;11.30;;;5.88;;
63693;SDS011;49839;51.798;10.954;2022-12-19T09:31:09;8.23;;;4.35;;
63693;SDS011;49839;51.798;10.954;2022-12-19T09:33:37;13.23;;;6.00;;
63693;SDS011;49839;51.798;10.954;2022-12-19T09:36:10;11.50;;;6.95;;
63693;SDS011;49839;51.798;10.954;2022-12-19T09:38:38;16.45;;;4.85;;
63693;SDS011;49839;51.798;10.954;2022-12-19T09:41:08;8.95;;;5.07;;
63693;SDS011;49839;51.798;10.954;2022-12-19T09:43:48;8.75;;;4.68;;
63693;SDS011;49839;51.798;10.954;2022-12-19T09:46:18;9.32;;;4.10;;
63693;SDS011;49839;51.798;10.954;2022-12-19T09:48:46;6.75;;;3.42;;
63693;SDS011;49839;51.798;10.954;2022-12-19T09:51:23;7.95;;;4.40;;
63693;SDS011;49839;51.798;10.954;2022-12-19T09:53:54;7.25;;;4.07;;
63693;SDS011;49839;51.798;10.954;2022-12-19T09:56:27;9.82;;;5.50;;
63693;SDS011;49839;51.798;10.954;2022-12-19T09:58:59;9.45;;;4.30;;
63693;SDS011;49839;51.798;10.954;2022-12-19T10:01:31;7.55;;;4.00;;
63693;SDS011;49839;51.798;10.954;2022-12-19T10:04:02;8.73;;;4.22;;
63693;SDS011;49839;51.798;10.954;2022-12-19T10:06:31;6.40;;;2.97;;
63693;SDS011;49839;51.798;10.954;2022-12-19T10:09:19;6.88;;;4.35;;
63693;SDS011;49839;51.798;10.954;2022-12-19T10:12:16;4.80;;;2.53;;
63693;SDS011;49839;51.798;10.954;2022-12-19T10:15:07;7.75;;;4.57;;
63693;SDS011;49839;51.798;10.954;2022-12-19T10:17:43;7.03;;;4.38;;
63693;SDS011;49839;51.798;10.954;2022-12-19T10:20:17;7.17;;;3.57;;
63693;SDS011;49839;51.798;10.954;2022-12-19T10:22:50;5.53;;;2.92;;
63693;SDS011;49839;51.798;10.954;2022-12-19T10:25:27;5.95;;;3.00;;
63693;SDS011;49839;51.798;10.954;2022-12-19T10:27:57;5.95;;;3.90;;
63693;SDS011;49839;51.798;10.954;2022-12-19T10:30:26;5.88;;;3.33;;
63693;SDS011;49839;51.798;10.954;2022-12-19T10:33:00;6.65;;;3.90;;
63693;SDS011;49839;51.798;10.954;2022-12-19T10:35:30;7.20;;;3.40;;
63693;SDS011;49839;51.798;10.954;2022-12-19T10:38:03;6.70;;;2.92;;
63693;SDS011;49839;51.798;10.954;2022-12-19T10:40:35;5.63;;;2.78;;
63693;SDS011;49839;51.798;10.954;2022-12-19T10:43:05;8.45;;;3.92;;
63693;SDS011;49839;51.798;10.954;2022-12-19T10:45:45;6.40;;;3.53;;
63693;SDS011;49839;51.798;10.954;2022-12-19T10:50:43;6.38;;;3.42;;
63693;SDS011;49839;51.798;10.954;2022-12-19T10:53:10;7.07;;;3.97;;
63693;SDS011;49839;51.798;10.954;2022-12-19T10:55:42;8.10;;;3.60;;
63693;SDS011;49839;51.798;10.954;2022-12-19T10:58:17;9.82;;;4.82;;
63693;SDS011;49839;51.798;10.954;2022-12-19T11:00:48;9.45;;;5.20;;
63693;SDS011;49839;51.798;10.954;2022-12-19T11:03:22;9.25;;;5.88;;
63693;SDS011;49839;51.798;10.954;2022-12-19T11:05:52;8.65;;;4.53;;
63693;SDS011;49839;51.798;10.954;2022-12-19T11:08:24;9.70;;;4.78;;
63693;SDS011;49839;51.798;10.954;2022-12-19T11:10:53;8.80;;;5.45;;
63693;SDS011;49839;51.798;10.954;2022-12-19T11:13:42;11.77;;;6.13;;
63693;SDS011;49839;51.798;10.954;2022-12-19T11:16:33;9.93;;;5.10;;
63693;SDS011;49839;51.798;10.954;2022-12-19T11:19:25;9.50;;;5.93;;
63693;SDS011;49839;51.798;10.954;2022-12-19T11:22:14;8.43;;;4.60;;
63693;SDS011;49839;51.798;10.954;2022-12-19T11:25:03;10.27;;;5.78;;
63693;SDS011;49839;51.798;10.954;2022-12-19T11:27:50;8.75;;;5.20;;
63693;SDS011;49839;51.798;10.954;2022-12-19T11:30:38;8.13;;;4.95;;
63693;SDS011;49839;51.798;10.954;2022-12-19T11:33:27;12.13;;;7.53;;
63693;SDS011;49839;51.798;10.954;2022-12-19T11:35:55;9.93;;;6.03;;
63693;SDS011;49839;51.798;10.954;2022-12-19T11:38:37;9.00;;;5.70;;
63693;SDS011;49839;51.798;10.954;2022-12-19T11:41:12;8.20;;;4.30;;
63693;SDS011;49839;51.798;10.954;2022-12-19T11:43:48;7.68;;;4.30;;
63693;SDS011;49839;51.798;10.954;2022-12-19T11:46:22;10.93;;;7.18;;
63693;SDS011;49839;51.798;10.954;2022-12-19T11:48:52;10.15;;;4.82;;
63693;SDS011;49839;51.798;10.954;2022-12-19T11:51:21;10.60;;;5.63;;
63693;SDS011;49839;51.798;10.954;2022-12-19T11:53:54;12.35;;;6.93;;
63693;SDS011;49839;51.798;10.954;2022-12-19T11:56:23;13.73;;;7.28;;
63693;SDS011;49839;51.798;10.954;2022-12-19T11:58:52;9.10;;;5.10;;
63693;SDS011;49839;51.798;10.954;2022-12-19T12:01:22;11.15;;;6.53;;
63693;SDS011;49839;51.798;10.954;2022-12-19T12:04:00;8.95;;;4.70;;
63693;SDS011;49839;51.798;10.954;2022-12-19T12:06:32;13.18;;;7.32;;
63693;SDS011;49839;51.798;10.954;2022-12-19T12:09:06;11.88;;;5.45;;
63693;SDS011;49839;51.798;10.954;2022-12-19T12:11:58;12.63;;;7.03;;
63693;SDS011;49839;51.798;10.954;2022-12-19T12:14:53;11.75;;;6.28;;
63693;SDS011;49839;51.798;10.954;2022-12-19T12:17:47;12.85;;;6.45;;
63693;SDS011;49839;51.798;10.954;2022-12-19T12:20:38;12.27;;;6.95;;
63693;SDS011;49839;51.798;10.954;2022-12-19T12:23:32;11.88;;;6.38;;
63693;SDS011;49839;51.798;10.954;2022-12-19T12:29:13;9.80;;;5.90;;
63693;SDS011;49839;51.798;10.954;2022-12-19T12:32:05;13.60;;;6.45;;
63693;SDS011;49839;51.798;10.954;2022-12-19T12:34:59;11.02;;;6.35;;
63693;SDS011;49839;51.798;10.954;2022-12-19T12:37:51;12.15;;;6.07;;
63693;SDS011;49839;51.798;10.954;2022-12-19T12:40:49;10.30;;;6.13;;
63693;SDS011;49839;51.798;10.954;2022-12-19T12:43:22;14.60;;;7.63;;
63693;SDS011;49839;51.798;10.954;2022-12-19T12:45:54;13.27;;;6.43;;
63693;SDS011;49839;51.798;10.954;2022-12-19T12:48:23;13.40;;;7.05;;
63693;SDS011;49839;51.798;10.954;2022-12-19T12:50:54;14.32;;;8.57;;
63693;SDS011;49839;51.798;10.954;2022-12-19T12:53:23;10.73;;;5.72;;
63693;SDS011;49839;51.798;10.954;2022-12-19T12:55:53;13.10;;;6.03;;
63693;SDS011;49839;51.798;10.954;2022-12-19T13:01:09;14.10;;;6.70;;
63693;SDS011;49839;51.798;10.954;2022-12-19T13:03:39;17.33;;;9.25;;
63693;SDS011;49839;51.798;10.954;2022-12-19T13:06:19;13.88;;;8.75;;
63693;SDS011;49839;51.798;10.954;2022-12-19T13:08:47;10.70;;;5.57;;
63693;SDS011;49839;51.798;10.954;2022-12-19T13:11:34;13.32;;;7.35;;
63693;SDS011;49839;51.798;10.954;2022-12-19T13:17:07;9.32;;;4.88;;
63693;SDS011;49839;51.798;10.954;2022-12-19T13:19:38;11.98;;;6.35;;
63693;SDS011;49839;51.798;10.954;2022-12-19T13:22:19;17.10;;;6.65;;
63693;SDS011;49839;51.798;10.954;2022-12-19T13:24:48;13.55;;;7.60;;
63693;SDS011;49839;51.798;10.954;2022-12-19T13:27:32;12.65;;;6.82;;
63693;SDS011;49839;51.798;10.954;2022-12-19T13:30:02;11.15;;;6.25;;
63693;SDS011;49839;51.798;10.954;2022-12-19T13:32:33;14.63;;;7.35;;
63693;SDS011;49839;51.798;10.954;2022-12-19T13:35:32;9.07;;;4.88;;
63693;SDS011;49839;51.798;10.954;2022-12-19T13:38:21;10.98;;;5.85;;
63693;SDS011;49839;51.798;10.954;2022-12-19T13:43:54;9.63;;;4.93;;
63693;SDS011;49839;51.798;10.954;2022-12-19T13:46:26;15.18;;;4.75;;
63693;SDS011;49839;51.798;10.954;2022-12-19T13:48:58;11.63;;;6.50;;
63693;SDS011;49839;51.798;10.954;2022-12-19T13:51:44;11.50;;;6.68;;
63693;SDS011;49839;51.798;10.954;2022-12-19T13:54:19;9.35;;;5.70;;
63693;SDS011;49839;51.798;10.954;2022-12-19T13:56:49;9.52;;;5.50;;
63693;SDS011;49839;51.798;10.954;2022-12-19T13:59:17;10.30;;;5.18;;
63693;SDS011;49839;51.798;10.954;2022-12-19T14:01:45;9.80;;;5.22;;
63693;SDS011;49839;51.798;10.954;2022-12-19T14:04:24;14.07;;;7.10;;
63693;SDS011;49839;51.798;10.954;2022-12-19T14:06:53;11.23;;;6.13;;
63693;SDS011;49839;51.798;10.954;2022-12-19T14:09:23;11.43;;;6.50;;
63693;SDS011;49839;51.798;10.954;2022-12-19T14:12:14;11.10;;;5.95;;
63693;SDS011;49839;51.798;10.954;2022-12-19T14:15:27;11.43;;;5.53;;
63693;SDS011;49839;51.798;10.954;2022-12-19T14:17:58;10.80;;;4.65;;
63693;SDS011;49839;51.798;10.954;2022-12-19T14:20:47;10.50;;;5.35;;
63693;SDS011;49839;51.798;10.954;2022-12-19T14:23:35;13.68;;;6.78;;
63693;SDS011;49839;51.798;10.954;2022-12-19T14:26:10;12.65;;;5.43;;
63693;SDS011;49839;51.798;10.954;2022-12-19T14:29:00;9.65;;;5.65;;
63693;SDS011;49839;51.798;10.954;2022-12-19T14:31:28;11.15;;;6.38;;
63693;SDS011;49839;51.798;10.954;2022-12-19T14:33:58;11.48;;;6.40;;
63693;SDS011;49839;51.798;10.954;2022-12-19T14:36:50;13.13;;;5.95;;
63693;SDS011;49839;51.798;10.954;2022-12-19T14:39:19;10.82;;;5.90;;
63693;SDS011;49839;51.798;10.954;2022-12-19T14:41:59;12.93;;;5.78;;
63693;SDS011;49839;51.798;10.954;2022-12-19T14:48:23;11.55;;;5.30;;
63693;SDS011;49839;51.798;10.954;2022-12-19T14:51:11;10.43;;;6.15;;
63693;SDS011;49839;51.798;10.954;2022-12-19T14:54:04;13.88;;;7.00;;
63693;SDS011;49839;51.798;10.954;2022-12-19T14:56:52;10.32;;;4.97;;
63693;SDS011;49839;51.798;10.954;2022-12-19T14:59:27;11.80;;;5.82;;
63693;SDS011;49839;51.798;10.954;2022-12-19T15:01:57;10.45;;;5.38;;
63693;SDS011;49839;51.798;10.954;2022-12-19T15:04:26;10.05;;;5.22;;
63693;SDS011;49839;51.798;10.954;2022-12-19T15:07:17;9.02;;;4.50;;
63693;SDS011;49839;51.798;10.954;2022-12-19T15:09:54;12.30;;;5.60;;
63693;SDS011;49839;51.798;10.954;2022-12-19T15:12:46;9.82;;;4.88;;
63693;SDS011;49839;51.798;10.954;2022-12-19T15:15:52;10.63;;;4.97;;
63693;SDS011;49839;51.798;10.954;2022-12-19T15:18:22;12.73;;;6.00;;
63693;SDS011;49839;51.798;10.954;2022-12-19T15:20:50;13.00;;;6.43;;